createdAt,value
2017-03-30T00:00:22.096Z,1018.5
2017-03-30T00:01:34.342Z,1018.5
2017-03-30T00:02:46.909Z,1018.53
2017-03-30T00:03:59.437Z,1018.52
2017-03-30T00:05:11.958Z,1018.51
2017-03-30T00:06:24.509Z,1018.55
2017-03-30T00:07:36.756Z,1018.52
2017-03-30T00:08:49.293Z,1018.51
2017-03-30T00:10:01.814Z,1018.54
2017-03-30T00:11:14.018Z,1018.54
2017-03-30T00:12:26.565Z,1018.51
2017-03-30T00:13:39.087Z,1018.49
2017-03-30T00:14:51.309Z,1018.53
2017-03-30T00:16:03.547Z,1018.53
2017-03-30T00:17:16.097Z,1018.54
2017-03-30T00:18:28.313Z,1018.53
2017-03-30T00:19:40.839Z,1018.55
2017-03-30T00:20:53.355Z,1018.57
2017-03-30T00:22:05.855Z,1018.52
2017-03-30T00:23:18.054Z,1018.5
2017-03-30T00:24:30.598Z,1018.51
2017-03-30T00:25:43.115Z,1018.52
2017-03-30T00:26:55.663Z,1018.52
2017-03-30T00:28:08.205Z,1018.49
2017-03-30T00:29:20.179Z,1018.52
2017-03-30T00:30:32.418Z,1018.53
2017-03-30T00:31:45.198Z,1018.54
2017-03-30T00:32:57.763Z,1018.54
2017-03-30T00:34:09.987Z,1018.51
2017-03-30T00:35:22.236Z,1018.49
2017-03-30T00:36:34.781Z,1018.51
2017-03-30T00:37:46.415Z,1018.51
2017-03-30T00:38:58.947Z,1018.51
2017-03-30T00:40:11.490Z,1018.54
2017-03-30T00:41:23.990Z,1018.5
2017-03-30T00:42:36.234Z,1018.52
2017-03-30T00:43:48.784Z,1018.49
2017-03-30T00:45:01.317Z,1018.53
2017-03-30T00:46:13.521Z,1018.49
2017-03-30T00:47:26.066Z,1018.48
2017-03-30T00:48:38.586Z,1018.53
2017-03-30T00:49:50.810Z,1018.51
2017-03-30T00:51:03.373Z,1018.51
2017-03-30T00:52:15.930Z,1018.47
2017-03-30T00:53:28.671Z,1018.51
2017-03-30T00:54:40.894Z,1018.53
2017-03-30T00:55:53.429Z,1018.5
2017-03-30T00:57:05.932Z,1018.52
2017-03-30T00:58:18.486Z,1018.5
2017-03-30T00:59:31.279Z,1018.45
2017-03-30T01:00:43.225Z,1018.48
2017-03-30T01:01:55.441Z,1018.49
2017-03-30T01:03:07.687Z,1018.48
2017-03-30T01:04:20.228Z,1018.49
2017-03-30T01:05:32.800Z,1018.5
2017-03-30T01:06:45.355Z,1018.54
2017-03-30T01:07:57.913Z,1018.52
2017-03-30T01:09:10.163Z,1018.5
2017-03-30T01:10:22.690Z,1018.5
2017-03-30T01:11:35.184Z,1018.5
2017-03-30T01:12:47.408Z,1018.5
2017-03-30T01:13:59.935Z,1018.49
2017-03-30T01:15:12.467Z,1018.49
2017-03-30T01:16:24.998Z,1018.51
2017-03-30T01:17:37.538Z,1018.5
2017-03-30T01:18:49.759Z,1018.52
2017-03-30T01:20:02.305Z,1018.52
2017-03-30T01:21:14.225Z,1018.51
2017-03-30T01:22:26.800Z,1018.51
2017-03-30T01:23:39.371Z,1018.52
2017-03-30T01:24:51.584Z,1018.54
2017-03-30T01:26:03.827Z,1018.56
2017-03-30T01:27:16.050Z,1018.55
2017-03-30T01:28:28.576Z,1018.51
2017-03-30T01:29:41.124Z,1018.47
2017-03-30T01:30:52.718Z,1018.5
2017-03-30T01:32:05.260Z,1018.54
2017-03-30T01:33:17.177Z,1018.52
2017-03-30T01:34:29.687Z,1018.48
2017-03-30T01:35:41.952Z,1018.45
2017-03-30T01:36:54.743Z,1018.53
2017-03-30T01:38:06.997Z,1018.56
2017-03-30T01:39:19.232Z,1018.56
2017-03-30T01:40:31.465Z,1018.53
2017-03-30T01:41:44.010Z,1018.53
2017-03-30T01:42:56.545Z,1018.5
2017-03-30T01:44:09.048Z,1018.5
2017-03-30T01:45:21.550Z,1018.57
2017-03-30T01:46:33.791Z,1018.52
2017-03-30T01:47:46.361Z,1018.53
2017-03-30T01:48:58.914Z,1018.44
2017-03-30T01:50:11.159Z,1018.43
2017-03-30T01:51:23.400Z,1018.44
2017-03-30T01:52:35.941Z,1018.46
2017-03-30T01:53:47.865Z,1018.48
2017-03-30T01:55:00.391Z,1018.5
2017-03-30T01:56:12.610Z,1018.55
2017-03-30T01:57:25.132Z,1018.55
2017-03-30T01:58:37.674Z,1018.49
2017-03-30T01:59:49.871Z,1018.5
2017-03-30T02:01:02.134Z,1018.54
2017-03-30T02:02:14.358Z,1018.55
2017-03-30T02:03:26.560Z,1018.61
2017-03-30T02:04:39.104Z,1018.6
2017-03-30T02:05:51.029Z,1018.63
2017-03-30T02:07:03.576Z,1018.62
2017-03-30T02:08:16.134Z,1018.64
2017-03-30T02:09:28.339Z,1018.69
2017-03-30T02:10:40.883Z,1018.67
2017-03-30T02:11:53.113Z,1018.7
2017-03-30T02:13:05.326Z,1018.68
2017-03-30T02:14:17.867Z,1018.69
2017-03-30T02:15:30.392Z,1018.64
2017-03-30T02:16:42.006Z,1018.66
2017-03-30T02:17:54.530Z,1018.72
2017-03-30T02:19:07.085Z,1018.71
2017-03-30T02:20:19.301Z,1018.71
2017-03-30T02:21:31.839Z,1018.72
2017-03-30T02:22:44.371Z,1018.71
2017-03-30T02:23:56.310Z,1018.71
2017-03-30T02:25:08.541Z,1018.71
2017-03-30T02:26:21.082Z,1018.68
2017-03-30T02:27:33.326Z,1018.69
2017-03-30T02:28:45.251Z,1018.73
2017-03-30T02:29:57.773Z,1018.71
2017-03-30T02:31:10.361Z,1018.74
2017-03-30T02:32:22.909Z,1018.76
2017-03-30T02:33:35.150Z,1018.74
2017-03-30T02:34:47.376Z,1018.74
2017-03-30T02:35:59.874Z,1018.73
2017-03-30T02:37:12.095Z,1018.75
2017-03-30T02:38:24.639Z,1018.78
2017-03-30T02:39:36.886Z,1018.78
2017-03-30T02:40:49.407Z,1018.82
2017-03-30T02:42:01.970Z,1018.81
2017-03-30T02:43:14.498Z,1018.84
2017-03-30T02:44:26.749Z,1018.83
2017-03-30T02:45:38.995Z,1018.85
2017-03-30T02:46:51.536Z,1018.82
2017-03-30T02:48:04.285Z,1018.8
2017-03-30T02:49:16.807Z,1018.78
2017-03-30T02:50:29.353Z,1018.8
2017-03-30T02:51:41.870Z,1018.76
2017-03-30T02:52:54.390Z,1018.77
2017-03-30T02:54:06.890Z,1018.81
2017-03-30T02:55:19.436Z,1018.85
2017-03-30T02:56:31.996Z,1018.8
2017-03-30T02:57:44.224Z,1018.81
2017-03-30T02:58:56.737Z,1018.83
2017-03-30T03:00:08.967Z,1018.85
2017-03-30T03:01:21.490Z,1018.85
2017-03-30T03:02:34.028Z,1018.84
2017-03-30T03:03:46.582Z,1018.83
2017-03-30T03:04:59.126Z,1018.84
2017-03-30T03:06:11.366Z,1018.83
2017-03-30T03:07:23.911Z,1018.82
2017-03-30T03:08:36.445Z,1018.82
2017-03-30T03:09:48.961Z,1018.81
2017-03-30T03:11:01.496Z,1018.84
2017-03-30T03:12:14.004Z,1018.82
2017-03-30T03:13:25.921Z,1018.82
2017-03-30T03:14:38.142Z,1018.83
2017-03-30T03:15:50.359Z,1018.8
2017-03-30T03:17:02.904Z,1018.81
2017-03-30T03:18:15.404Z,1018.8
2017-03-30T03:19:27.920Z,1018.74
2017-03-30T03:20:40.172Z,1018.81
2017-03-30T03:21:52.397Z,1018.77
2017-03-30T03:23:04.938Z,1018.75
2017-03-30T03:24:17.161Z,1018.79
2017-03-30T03:25:29.934Z,1018.76
2017-03-30T03:26:42.427Z,1018.79
2017-03-30T03:27:54.655Z,1018.79
2017-03-30T03:29:07.171Z,1018.73
2017-03-30T03:30:19.403Z,1018.76
2017-03-30T03:31:31.662Z,1018.76
2017-03-30T03:32:44.184Z,1018.8
2017-03-30T03:33:56.420Z,1018.74
2017-03-30T03:35:08.956Z,1018.8
2017-03-30T03:36:21.518Z,1018.81
2017-03-30T03:37:34.020Z,1018.82
2017-03-30T03:38:46.268Z,1018.81
2017-03-30T03:39:58.811Z,1018.87
2017-03-30T03:41:11.332Z,1018.86
2017-03-30T03:42:23.878Z,1018.92
2017-03-30T03:43:36.093Z,1018.91
2017-03-30T03:44:48.636Z,1018.88
2017-03-30T03:46:01.169Z,1018.81
2017-03-30T03:47:13.412Z,1018.8
2017-03-30T03:48:25.953Z,1018.79
2017-03-30T03:49:38.501Z,1018.86
2017-03-30T03:50:51.023Z,1018.82
2017-03-30T03:52:03.244Z,1018.89
2017-03-30T03:53:15.470Z,1018.86
2017-03-30T03:54:28.007Z,1018.93
2017-03-30T03:55:40.256Z,1018.91
2017-03-30T03:56:52.791Z,1018.89
2017-03-30T03:58:05.569Z,1018.91
2017-03-30T03:59:17.795Z,1018.89
2017-03-30T04:00:30.340Z,1018.89
2017-03-30T04:01:42.885Z,1018.92
2017-03-30T04:02:55.405Z,1018.9
2017-03-30T04:04:07.354Z,1018.97
2017-03-30T04:05:19.615Z,1018.98
2017-03-30T04:06:31.862Z,1019.01
2017-03-30T04:07:44.380Z,1018.96
2017-03-30T04:08:56.935Z,1018.98
2017-03-30T04:10:09.473Z,1018.99
2017-03-30T04:11:21.430Z,1019.01
2017-03-30T04:12:33.375Z,1019.06
2017-03-30T04:13:45.917Z,1019
2017-03-30T04:14:58.163Z,1018.99
2017-03-30T04:16:10.388Z,1018.94
2017-03-30T04:17:22.926Z,1018.94
2017-03-30T04:18:35.467Z,1018.97
2017-03-30T04:19:48.004Z,1018.97
2017-03-30T04:21:00.570Z,1018.96
2017-03-30T04:22:13.144Z,1019.07
2017-03-30T04:23:25.680Z,1019.03
2017-03-30T04:24:38.207Z,1019.1
2017-03-30T04:25:50.451Z,1018.99
2017-03-30T04:27:02.992Z,1018.99
2017-03-30T04:28:15.534Z,1019.01
2017-03-30T04:29:28.046Z,1019.01
2017-03-30T04:30:40.266Z,1019.04
2017-03-30T04:31:52.806Z,1019.06
2017-03-30T04:33:05.327Z,1019.1
2017-03-30T04:34:17.847Z,1019.05
2017-03-30T04:35:30.393Z,1019.05
2017-03-30T04:36:42.914Z,1019.04
2017-03-30T04:37:55.461Z,1019.02
2017-03-30T04:39:07.697Z,1019
2017-03-30T04:40:19.901Z,1019.06
2017-03-30T04:41:32.415Z,1019.05
2017-03-30T04:42:44.943Z,1019.04
2017-03-30T04:43:57.464Z,1019.05
2017-03-30T04:45:09.692Z,1019.07
2017-03-30T04:46:22.257Z,1019.05
2017-03-30T04:47:34.780Z,1019.06
2017-03-30T04:48:46.726Z,1019.07
2017-03-30T04:49:58.969Z,1019.1
2017-03-30T04:51:11.190Z,1019.09
2017-03-30T04:52:23.440Z,1019.08
2017-03-30T04:53:35.981Z,1019.1
2017-03-30T04:54:48.211Z,1019.08
2017-03-30T04:56:00.452Z,1019.07
2017-03-30T04:57:12.698Z,1019.07
2017-03-30T04:58:25.269Z,1019.1
2017-03-30T04:59:37.813Z,1019.09
2017-03-30T05:00:50.061Z,1019.09
2017-03-30T05:02:02.285Z,1019.05
2017-03-30T05:03:14.451Z,1019.07
2017-03-30T05:04:26.691Z,1019.07
2017-03-30T05:05:38.920Z,1019.1
2017-03-30T05:06:51.487Z,1019.07
2017-03-30T05:08:04.029Z,1019.11
2017-03-30T05:09:16.280Z,1019.08
2017-03-30T05:10:28.808Z,1019.05
2017-03-30T05:11:41.363Z,1019.09
2017-03-30T05:12:53.915Z,1019.12
2017-03-30T05:14:06.168Z,1019.11
2017-03-30T05:15:18.417Z,1019.1
2017-03-30T05:16:30.657Z,1019.12
2017-03-30T05:17:42.903Z,1019.08
2017-03-30T05:18:54.822Z,1019.06
2017-03-30T05:20:07.066Z,1019.11
2017-03-30T05:21:19.294Z,1019.11
2017-03-30T05:22:31.228Z,1019.11
2017-03-30T05:23:43.456Z,1019.13
2017-03-30T05:24:55.953Z,1019.11
2017-03-30T05:26:08.496Z,1019.1
2017-03-30T05:27:21.038Z,1019.1
2017-03-30T05:28:33.568Z,1019.1
2017-03-30T05:29:45.786Z,1019.13
2017-03-30T05:30:57.949Z,1019.1
2017-03-30T05:32:10.483Z,1019.13
2017-03-30T05:33:22.122Z,1019.16
2017-03-30T05:34:34.664Z,1019.14
2017-03-30T05:35:47.219Z,1019.19
2017-03-30T05:36:59.742Z,1019.19
2017-03-30T05:38:11.998Z,1019.24
2017-03-30T05:39:24.509Z,1019.22
2017-03-30T05:40:37.048Z,1019.22
2017-03-30T05:41:49.298Z,1019.24
2017-03-30T05:43:01.834Z,1019.24
2017-03-30T05:44:14.377Z,1019.25
2017-03-30T05:45:26.902Z,1019.22
2017-03-30T05:46:39.430Z,1019.2
2017-03-30T05:47:51.950Z,1019.23
2017-03-30T05:49:04.170Z,1019.26
2017-03-30T05:50:16.690Z,1019.26
2017-03-30T05:51:28.937Z,1019.25
2017-03-30T05:52:41.477Z,1019.25
2017-03-30T05:53:54.024Z,1019.28
2017-03-30T05:55:06.255Z,1019.28
2017-03-30T05:56:18.796Z,1019.33
2017-03-30T05:57:31.347Z,1019.28
2017-03-30T05:58:43.862Z,1019.29
2017-03-30T05:59:56.385Z,1019.35
2017-03-30T06:01:08.304Z,1019.3
2017-03-30T06:02:20.531Z,1019.32
2017-03-30T06:03:33.071Z,1019.35
2017-03-30T06:04:45.296Z,1019.34
2017-03-30T06:05:57.215Z,1019.4
2017-03-30T06:07:09.764Z,1019.35
2017-03-30T06:08:22.332Z,1019.34
2017-03-30T06:09:34.878Z,1019.33
2017-03-30T06:10:46.819Z,1019.35
2017-03-30T06:11:59.066Z,1019.31
2017-03-30T06:13:11.605Z,1019.38
2017-03-30T06:14:24.132Z,1019.35
2017-03-30T06:15:36.350Z,1019.36
2017-03-30T06:16:48.554Z,1019.39
2017-03-30T06:18:01.099Z,1019.4
2017-03-30T06:19:13.593Z,1019.39
2017-03-30T06:20:25.812Z,1019.37
2017-03-30T06:21:38.313Z,1019.35
2017-03-30T06:22:50.580Z,1019.39
2017-03-30T06:24:02.833Z,1019.39
2017-03-30T06:25:15.065Z,1019.37
2017-03-30T06:26:27.296Z,1019.41
2017-03-30T06:27:39.860Z,1019.41
2017-03-30T06:28:52.083Z,1019.39
2017-03-30T06:30:04.625Z,1019.37
2017-03-30T06:31:16.874Z,1019.39
2017-03-30T06:32:29.100Z,1019.38
2017-03-30T06:33:41.622Z,1019.39
2017-03-30T06:34:54.163Z,1019.4
2017-03-30T06:36:06.690Z,1019.4
2017-03-30T06:37:19.209Z,1019.44
2017-03-30T06:38:31.728Z,1019.39
2017-03-30T06:39:44.254Z,1019.43
2017-03-30T06:40:57.070Z,1019.44
2017-03-30T06:42:09.610Z,1019.39
2017-03-30T06:43:21.864Z,1019.44
2017-03-30T06:44:34.406Z,1019.41
2017-03-30T06:45:46.947Z,1019.43
2017-03-30T06:46:59.176Z,1019.44
2017-03-30T06:48:11.718Z,1019.43
2017-03-30T06:49:24.245Z,1019.45
2017-03-30T06:50:36.781Z,1019.48
2017-03-30T06:51:49.298Z,1019.53
2017-03-30T06:53:01.519Z,1019.48
2017-03-30T06:54:14.055Z,1019.53
2017-03-30T06:55:25.698Z,1019.52
2017-03-30T06:56:37.945Z,1019.54
2017-03-30T06:57:50.489Z,1019.54
2017-03-30T06:59:02.702Z,1019.49
2017-03-30T07:00:15.255Z,1019.55
2017-03-30T07:01:27.503Z,1019.58
2017-03-30T07:02:40.026Z,1019.56
2017-03-30T07:03:52.531Z,1019.58
2017-03-30T07:05:04.736Z,1019.6
2017-03-30T07:06:17.286Z,1019.6
2017-03-30T07:07:29.832Z,1019.62
2017-03-30T07:08:42.392Z,1019.61
2017-03-30T07:09:54.922Z,1019.57
2017-03-30T07:11:07.169Z,1019.57
2017-03-30T07:12:19.711Z,1019.64
2017-03-30T07:13:31.938Z,1019.64
2017-03-30T07:14:44.478Z,1019.63
2017-03-30T07:15:56.717Z,1019.63
2017-03-30T07:17:09.262Z,1019.63
2017-03-30T07:18:21.766Z,1019.62
2017-03-30T07:19:34.305Z,1019.67
2017-03-30T07:20:46.841Z,1019.66
2017-03-30T07:21:59.384Z,1019.66
2017-03-30T07:23:11.921Z,1019.64
2017-03-30T07:24:24.151Z,1019.65
2017-03-30T07:25:36.371Z,1019.68
2017-03-30T07:26:48.587Z,1019.71
2017-03-30T07:28:01.125Z,1019.7
2017-03-30T07:29:13.350Z,1019.73
2017-03-30T07:30:25.585Z,1019.75
2017-03-30T07:31:38.121Z,1019.77
2017-03-30T07:32:50.646Z,1019.76
2017-03-30T07:34:02.863Z,1019.74
2017-03-30T07:35:15.086Z,1019.78
2017-03-30T07:36:27.611Z,1019.8
2017-03-30T07:37:39.854Z,1019.88
2017-03-30T07:38:52.406Z,1019.9
2017-03-30T07:40:04.648Z,1019.93
2017-03-30T07:41:16.891Z,1019.92
2017-03-30T07:42:29.430Z,1019.84
2017-03-30T07:43:41.984Z,1019.91
2017-03-30T07:44:54.526Z,1019.88
2017-03-30T07:46:07.027Z,1019.89
2017-03-30T07:47:19.544Z,1019.94
2017-03-30T07:48:31.767Z,1019.94
2017-03-30T07:49:44.317Z,1019.92
2017-03-30T07:50:56.855Z,1019.92
2017-03-30T07:52:09.394Z,1019.98
2017-03-30T07:53:21.950Z,1019.96
2017-03-30T07:54:34.193Z,1019.96
2017-03-30T07:55:46.745Z,1020.02
2017-03-30T07:56:58.960Z,1020.02
2017-03-30T07:58:11.204Z,1020.03
2017-03-30T07:59:23.460Z,1020.04
2017-03-30T08:00:36.003Z,1020.06
2017-03-30T08:01:48.248Z,1020.06
2017-03-30T08:03:00.510Z,1020.06
2017-03-30T08:04:13.055Z,1020.06
2017-03-30T08:05:24.986Z,1020.11
2017-03-30T08:06:37.531Z,1020.09
2017-03-30T08:07:50.076Z,1020.05
2017-03-30T08:09:02.319Z,1020.1
2017-03-30T08:10:14.870Z,1020.12
2017-03-30T08:11:27.428Z,1020.14
2017-03-30T08:12:39.659Z,1020.17
2017-03-30T08:13:52.206Z,1020.22
2017-03-30T08:15:04.458Z,1020.13
2017-03-30T08:16:16.696Z,1020.14
2017-03-30T08:17:28.909Z,1020.17
2017-03-30T08:18:41.684Z,1020.13
2017-03-30T08:19:54.262Z,1020.12
2017-03-30T08:21:06.824Z,1020.17
2017-03-30T08:22:19.371Z,1020.18
2017-03-30T08:23:31.613Z,1020.2
2017-03-30T08:24:44.142Z,1020.21
2017-03-30T08:25:56.678Z,1020.21
2017-03-30T08:27:09.211Z,1020.18
2017-03-30T08:28:21.747Z,1020.19
2017-03-30T08:29:34.250Z,1020.2
2017-03-30T08:30:46.791Z,1020.21
2017-03-30T08:31:59.374Z,1020.17
2017-03-30T08:33:11.916Z,1020.17
2017-03-30T08:34:24.158Z,1020.17
2017-03-30T08:35:36.688Z,1020.16
2017-03-30T08:36:48.952Z,1020.18
2017-03-30T08:38:01.522Z,1020.17
2017-03-30T08:39:14.041Z,1020.16
2017-03-30T08:40:26.280Z,1020.16
2017-03-30T08:41:38.527Z,1020.18
2017-03-30T08:42:51.058Z,1020.19
2017-03-30T08:44:03.300Z,1020.17
2017-03-30T08:45:15.803Z,1020.19
2017-03-30T08:46:28.318Z,1020.19
2017-03-30T08:47:40.523Z,1020.2
2017-03-30T08:48:53.067Z,1020.2
2017-03-30T08:50:05.630Z,1020.19
2017-03-30T08:51:17.594Z,1020.23
2017-03-30T08:52:30.128Z,1020.24
2017-03-30T08:53:42.671Z,1020.25
2017-03-30T08:54:54.911Z,1020.24
2017-03-30T08:56:07.463Z,1020.31
2017-03-30T08:57:20.006Z,1020.31
2017-03-30T08:58:32.234Z,1020.34
2017-03-30T08:59:44.789Z,1020.37
2017-03-30T09:00:57.018Z,1020.34
2017-03-30T09:02:09.260Z,1020.31
2017-03-30T09:03:21.485Z,1020.29
2017-03-30T09:04:33.998Z,1020.28
2017-03-30T09:05:46.233Z,1020.23
2017-03-30T09:06:58.756Z,1020.27
2017-03-30T09:08:11.290Z,1020.27
2017-03-30T09:09:23.794Z,1020.27
2017-03-30T09:10:35.985Z,1020.28
2017-03-30T09:11:48.224Z,1020.31
2017-03-30T09:13:00.778Z,1020.26
2017-03-30T09:14:13.323Z,1020.27
2017-03-30T09:15:25.249Z,1020.25
2017-03-30T09:16:37.475Z,1020.27
2017-03-30T09:17:49.991Z,1020.31
2017-03-30T09:19:02.486Z,1020.31
2017-03-30T09:20:14.706Z,1020.34
2017-03-30T09:21:26.353Z,1020.33
2017-03-30T09:22:38.305Z,1020.36
2017-03-30T09:23:50.533Z,1020.3
2017-03-30T09:25:02.767Z,1020.31
2017-03-30T09:26:15.287Z,1020.32
2017-03-30T09:27:27.204Z,1020.36
2017-03-30T09:28:39.745Z,1020.34
2017-03-30T09:29:52.001Z,1020.32
2017-03-30T09:31:04.551Z,1020.25
2017-03-30T09:32:17.106Z,1020.26
2017-03-30T09:33:29.611Z,1020.31
2017-03-30T09:34:41.851Z,1020.24
2017-03-30T09:35:54.397Z,1020.25
2017-03-30T09:37:06.625Z,1020.25
2017-03-30T09:38:19.161Z,1020.28
2017-03-30T09:39:31.663Z,1020.3
2017-03-30T09:40:43.584Z,1020.31
2017-03-30T09:41:56.115Z,1020.34
2017-03-30T09:43:08.655Z,1020.3
2017-03-30T09:44:21.171Z,1020.29
2017-03-30T09:45:33.121Z,1020.28
2017-03-30T09:46:45.385Z,1020.31
2017-03-30T09:47:57.933Z,1020.33
2017-03-30T09:49:10.162Z,1020.36
2017-03-30T09:50:22.407Z,1020.3
2017-03-30T09:51:34.650Z,1020.36
2017-03-30T09:52:46.892Z,1020.33
2017-03-30T09:53:59.106Z,1020.27
2017-03-30T09:55:11.638Z,1020.24
2017-03-30T09:56:23.561Z,1020.27
2017-03-30T09:57:35.810Z,1020.19
2017-03-30T09:58:48.052Z,1020.26
2017-03-30T10:00:00.298Z,1020.31
2017-03-30T10:01:12.245Z,1020.33
2017-03-30T10:02:24.186Z,1020.36
2017-03-30T10:03:36.752Z,1020.38
2017-03-30T10:04:48.982Z,1020.26
2017-03-30T10:06:01.226Z,1020.26
2017-03-30T10:07:13.472Z,1020.33
2017-03-30T10:08:25.736Z,1020.29
2017-03-30T10:09:38.261Z,1020.3
2017-03-30T10:10:50.810Z,1020.33
2017-03-30T10:12:03.403Z,1020.27
2017-03-30T10:13:15.966Z,1020.24
2017-03-30T10:14:28.197Z,1020.28
2017-03-30T10:15:40.419Z,1020.28
2017-03-30T10:16:52.664Z,1020.28
2017-03-30T10:18:05.207Z,1020.26
2017-03-30T10:19:17.449Z,1020.3
2017-03-30T10:20:29.720Z,1020.26
2017-03-30T10:21:42.251Z,1020.23
2017-03-30T10:22:54.809Z,1020.16
2017-03-30T10:24:07.356Z,1020.14
2017-03-30T10:25:18.986Z,1020.18
2017-03-30T10:26:31.224Z,1020.1
2017-03-30T10:27:43.778Z,1020.06
2017-03-30T10:28:56.325Z,1020.04
2017-03-30T10:30:08.885Z,1020.08
2017-03-30T10:31:21.457Z,1019.99
2017-03-30T10:32:33.410Z,1019.94
2017-03-30T10:33:45.955Z,1019.99
2017-03-30T10:34:58.468Z,1020
2017-03-30T10:36:10.700Z,1020.05
2017-03-30T10:37:23.234Z,1020.1
2017-03-30T10:38:35.738Z,1020.15
2017-03-30T10:39:47.677Z,1020.13
2017-03-30T10:40:59.906Z,1020.14
2017-03-30T10:42:12.484Z,1020.16
2017-03-30T10:43:24.697Z,1020.16
2017-03-30T10:44:37.239Z,1020.16
2017-03-30T10:45:49.747Z,1020.16
2017-03-30T10:47:02.260Z,1020.13
2017-03-30T10:48:14.484Z,1020.02
2017-03-30T10:49:27.027Z,1019.99
2017-03-30T10:50:39.556Z,1019.91
2017-03-30T10:51:51.771Z,1020.08
2017-03-30T10:53:04.307Z,1020.08
2017-03-30T10:54:16.563Z,1020.14
2017-03-30T10:55:28.880Z,1020.06
2017-03-30T10:56:41.432Z,1019.99
2017-03-30T10:57:53.697Z,1020.02
2017-03-30T10:59:05.921Z,1020.02
2017-03-30T11:00:18.469Z,1019.96
2017-03-30T11:01:31.010Z,1019.8
2017-03-30T11:02:43.542Z,1019.77
2017-03-30T11:03:56.103Z,1019.76
2017-03-30T11:05:08.644Z,1019.71
2017-03-30T11:06:21.189Z,1019.75
2017-03-30T11:07:33.473Z,1019.7
2017-03-30T11:08:46.003Z,1019.76
2017-03-30T11:09:58.556Z,1019.78
2017-03-30T11:11:10.805Z,1019.83
2017-03-30T11:12:23.078Z,1019.89
2017-03-30T11:13:35.636Z,1019.88
2017-03-30T11:14:47.857Z,1019.89
2017-03-30T11:16:00.061Z,1019.86
2017-03-30T11:17:12.327Z,1019.88
2017-03-30T11:18:24.578Z,1019.98
2017-03-30T11:19:36.827Z,1020.02
2017-03-30T11:20:49.322Z,1020
2017-03-30T11:22:01.850Z,1020.01
2017-03-30T11:23:14.089Z,1020.11
2017-03-30T11:24:26.050Z,1020.12
2017-03-30T11:25:38.554Z,1020.06
2017-03-30T11:26:51.105Z,1020.02
2017-03-30T11:28:03.370Z,1020.02
2017-03-30T11:29:15.296Z,1020.02
2017-03-30T11:30:27.841Z,1019.99
2017-03-30T11:31:40.379Z,1019.94
2017-03-30T11:32:52.934Z,1019.88
2017-03-30T11:34:05.491Z,1019.91
2017-03-30T11:35:17.720Z,1019.89
2017-03-30T11:36:29.680Z,1019.87
2017-03-30T11:37:42.215Z,1019.88
2017-03-30T11:38:54.776Z,1019.87
2017-03-30T11:40:07.003Z,1019.85
2017-03-30T11:41:19.271Z,1019.85
2017-03-30T11:42:31.505Z,1019.79
2017-03-30T11:43:44.073Z,1019.77
2017-03-30T11:44:56.617Z,1019.77
2017-03-30T11:46:09.165Z,1019.75
2017-03-30T11:47:21.730Z,1019.79
2017-03-30T11:48:34.277Z,1019.77
2017-03-30T11:49:46.814Z,1019.76
2017-03-30T11:50:59.344Z,1019.7
2017-03-30T11:52:11.871Z,1019.78
2017-03-30T11:53:24.115Z,1019.79
2017-03-30T11:54:36.665Z,1019.79
2017-03-30T11:55:49.197Z,1019.71
2017-03-30T11:57:01.750Z,1019.72
2017-03-30T11:58:14.300Z,1019.75
2017-03-30T11:59:26.517Z,1019.77
2017-03-30T12:00:38.751Z,1019.8
2017-03-30T12:01:51.009Z,1019.73
2017-03-30T12:03:03.572Z,1019.75
2017-03-30T12:04:16.097Z,1019.78
2017-03-30T12:05:28.322Z,1019.8
2017-03-30T12:06:40.885Z,1019.76
2017-03-30T12:07:53.413Z,1019.76
2017-03-30T12:09:05.673Z,1019.8
2017-03-30T12:10:17.906Z,1019.8
2017-03-30T12:11:30.465Z,1019.85
2017-03-30T12:12:42.697Z,1019.84
2017-03-30T12:13:55.246Z,1019.89
2017-03-30T12:15:07.806Z,1019.78
2017-03-30T12:16:20.358Z,1019.78
2017-03-30T12:17:33.145Z,1019.79
2017-03-30T12:18:45.723Z,1019.88
2017-03-30T12:19:58.269Z,1019.83
2017-03-30T12:21:10.515Z,1019.8
2017-03-30T12:22:23.078Z,1019.74
2017-03-30T12:23:35.627Z,1019.71
2017-03-30T12:24:48.157Z,1019.7
2017-03-30T12:26:00.701Z,1019.65
2017-03-30T12:27:12.941Z,1019.55
2017-03-30T12:28:24.933Z,1019.61
2017-03-30T12:29:37.491Z,1019.55
2017-03-30T12:30:50.033Z,1019.47
2017-03-30T12:32:02.579Z,1019.47
2017-03-30T12:33:14.557Z,1019.38
2017-03-30T12:34:26.788Z,1019.33
2017-03-30T12:35:39.296Z,1019.31
2017-03-30T12:36:51.833Z,1019.31
2017-03-30T12:38:04.386Z,1019.26
2017-03-30T12:39:16.921Z,1019.26
2017-03-30T12:40:29.429Z,1019.26
2017-03-30T12:41:41.949Z,1019.24
2017-03-30T12:42:54.186Z,1019.26
2017-03-30T12:44:06.404Z,1019.27
2017-03-30T12:45:18.656Z,1019.22
2017-03-30T12:46:31.207Z,1019.19
2017-03-30T12:47:43.768Z,1019.32
2017-03-30T12:48:55.996Z,1019.3
2017-03-30T12:50:08.510Z,1019.31
2017-03-30T12:51:21.041Z,1019.37
2017-03-30T12:52:33.587Z,1019.19
2017-03-30T12:53:45.808Z,1019.24
2017-03-30T12:54:58.354Z,1019.28
2017-03-30T12:56:10.597Z,1019.22
2017-03-30T12:57:23.123Z,1019.26
2017-03-30T12:58:35.684Z,1019.27
2017-03-30T12:59:48.209Z,1019.23
2017-03-30T13:01:00.733Z,1019.21
2017-03-30T13:02:13.303Z,1019.23
2017-03-30T13:03:25.564Z,1019.12
2017-03-30T13:04:38.114Z,1019.14
2017-03-30T13:05:50.394Z,1019.07
2017-03-30T13:07:02.980Z,1019.04
2017-03-30T13:08:15.510Z,1019.04
2017-03-30T13:09:28.052Z,1019.1
2017-03-30T13:10:40.294Z,1019.07
2017-03-30T13:11:52.240Z,1019.08
2017-03-30T13:13:04.807Z,1019.07
2017-03-30T13:14:17.352Z,1019.11
2017-03-30T13:15:29.904Z,1019.08
2017-03-30T13:16:41.835Z,1019.01
2017-03-30T13:17:53.777Z,1018.94
2017-03-30T13:19:06.040Z,1018.92
2017-03-30T13:20:18.278Z,1018.86
2017-03-30T13:21:30.793Z,1018.84
2017-03-30T13:22:43.348Z,1018.86
2017-03-30T13:23:55.606Z,1018.78
2017-03-30T13:25:07.853Z,1018.72
2017-03-30T13:26:19.811Z,1018.69
2017-03-30T13:27:32.058Z,1018.66
2017-03-30T13:28:44.611Z,1018.68
2017-03-30T13:29:57.157Z,1018.67
2017-03-30T13:31:09.378Z,1018.62
2017-03-30T13:32:21.928Z,1018.66
2017-03-30T13:33:34.473Z,1018.65
2017-03-30T13:34:46.737Z,1018.6
2017-03-30T13:35:59.304Z,1018.65
2017-03-30T13:37:11.563Z,1018.64
2017-03-30T13:38:24.103Z,1018.66
2017-03-30T13:39:36.327Z,1018.66
2017-03-30T13:40:48.620Z,1018.66
2017-03-30T13:42:01.158Z,1018.64
2017-03-30T13:43:13.408Z,1018.64
2017-03-30T13:44:25.978Z,1018.64
2017-03-30T13:45:38.525Z,1018.61
2017-03-30T13:46:50.754Z,1018.6
2017-03-30T13:48:03.275Z,1018.62
2017-03-30T13:49:15.516Z,1018.61
2017-03-30T13:50:28.045Z,1018.63
2017-03-30T13:51:40.558Z,1018.67
2017-03-30T13:52:52.784Z,1018.76
2017-03-30T13:54:04.726Z,1018.79
2017-03-30T13:55:17.263Z,1018.7
2017-03-30T13:56:29.813Z,1018.7
2017-03-30T13:57:42.409Z,1018.65
2017-03-30T13:58:54.963Z,1018.68
2017-03-30T14:00:07.205Z,1018.66
2017-03-30T14:01:19.471Z,1018.63
2017-03-30T14:02:32.015Z,1018.63
2017-03-30T14:03:44.535Z,1018.64
2017-03-30T14:04:56.769Z,1018.61
2017-03-30T14:06:09.288Z,1018.57
2017-03-30T14:07:21.480Z,1018.64
2017-03-30T14:08:32.781Z,1018.56
2017-03-30T14:09:45.326Z,1018.51
2017-03-30T14:10:57.843Z,1018.46
2017-03-30T14:12:09.787Z,1018.52
2017-03-30T14:13:22.317Z,1018.54
2017-03-30T14:14:34.834Z,1018.54
2017-03-30T14:15:46.780Z,1018.51
2017-03-30T14:16:59.323Z,1018.51
2017-03-30T14:18:11.848Z,1018.47
2017-03-30T14:19:23.493Z,1018.52
2017-03-30T14:20:36.040Z,1018.54
2017-03-30T14:21:48.286Z,1018.47
2017-03-30T14:23:00.220Z,1018.49
2017-03-30T14:24:12.444Z,1018.46
2017-03-30T14:25:24.994Z,1018.42
2017-03-30T14:26:37.557Z,1018.41
2017-03-30T14:27:49.790Z,1018.4
2017-03-30T14:29:02.025Z,1018.35
2017-03-30T14:30:14.533Z,1018.34
2017-03-30T14:31:26.791Z,1018.27
2017-03-30T14:32:39.323Z,1018.23
2017-03-30T14:33:51.858Z,1018.26
2017-03-30T14:35:04.415Z,1018.25
2017-03-30T14:36:16.991Z,1018.24
2017-03-30T14:37:29.545Z,1018.27
2017-03-30T14:38:42.096Z,1018.22